Recent Speed Test Results

Minimum

Min 0.07 Mbps : 0.14 Mbps

Median

Median 55.21 Mbps : 12.74 Mbps

Maximum

Max 544.22 Mbps : 98.35 Mbps

Minimum

Minimum: 0.07 Mbps : 0.14 Mbps

Median

Median: 55.21 Mbps : 12.74 Mbps

Maximum

Maximum: 544.22 Mbps : 98.35 Mbps
Download   Upload   Members  
Results over 50Mbps are highlighted.
Time
  
  Speed   Provider Size    User ConnectID   TestID
7/3/22 9:32:11 pm 4.24 Mbps 0.53 MB/sAtt Wireless 85.4 MB98831578915 US RloEhm0l_ 
7/3/22 9:32:11 pm 17.31 Mbps 2.16 MB/sSuper Cell 6.3 MB7627156138432 IQ qvXe3M346 
7/3/22 9:32:10 pm 1.2 Mbps 0.15 MB/sTelkomsel 696 kBB4N6MANSUR16700311187 ID vF0y~ZIMi 
7/3/22 9:32:09 pm 81.35 Mbps 10.17 MB/sPalestine 60.5 MB19589994876 PS OYw3Xr8HE 
7/3/22 9:32:09 pm 47.43 Mbps 5.93 MB/sClouvider 25.4 MB16982464028913 US 8vBCU1nVi 
7/3/22 9:32:07 pm 13.04 Mbps 1.63 MB/sCox 9 MBHotlamp86805512103171 US 3jCK_eKJV 
7/3/22 9:32:06 pm 1.2 Mbps 0.15 MB/sEarthlink 2.5 MB13687346332051 IQ YspNw1Ezu 
7/3/22 9:32:04 pm 0.97 Mbps 0.12 MB/sSuper Cell 480 kB7627156138432 IQ gvvTySo4j 
7/3/22 9:31:58 pm 3.54 Mbps 0.44 MB/sO2 2.6 MB9765023881706 DE f8aGs~S2N 
7/3/22 9:31:57 pm 1.18 Mbps 0.15 MB/sTelkomsel 1008 kBB4N6MANSUR16700311187 ID Io3YxfAJe 
7/3/22 9:31:57 pm 434.7 Mbps 54.34 MB/sWave 200 MB9557437100641 US KjPUjKfL~ 
7/3/22 9:31:55 pm 56.79 Mbps 7.1 MB/sAtt Wireless 23 MBKemper Martin15242734215350 US TRBicKO7_ 
7/3/22 9:31:54 pm 2.9 Mbps 0.36 MB/sRogers Cable 1.3 MB32344314558309 CA aRBSW-9nb 
7/3/22 9:31:52 pm 544.22 Mbps 68.03 MB/sX 200 MB52696901398879 AU wRnhLOXpR 
7/3/22 9:31:47 pm 15.95 Mbps 1.99 MB/sMediacom 22.5 MB50587620400319 US 2SJbECovM 
7/3/22 9:31:45 pm 3.51 Mbps 0.44 MB/sBsnl 2.5 MB1074922517171 IN CY_iuIEex 
7/3/22 9:31:41 pm 6.24 Mbps 0.78 MB/sTpg Internet 6.3 MBKaczanowski WIFI17709393359052 AU j3HualdHc 
7/3/22 9:31:41 pm 77.84 Mbps 9.73 MB/sT Mobile USA 200 MB15827110214 US CIKY3xiN3 
7/3/22 9:31:35 pm 5.84 Mbps 0.73 MB/sRogers Cable 2.5 MB32344314558309 CA naitfADJa 
7/3/22 9:31:31 pm 97.31 Mbps 12.16 MB/sMediacom 118.2 MB50587620400319 US hsbUbaKPC 
7/3/22 9:31:27 pm 53.62 Mbps 6.7 MB/sTpg Internet 20.9 MBKaczanowski WIFI17709393359052 AU dz1Gns5EW 
7/3/22 9:31:25 pm 0.42 Mbps 0.05 MB/sGrupo Ice 429 kB1845101392533 CR AT4_iYmHB 
7/3/22 9:31:24 pm 3.41 Mbps 0.43 MB/sVodafone Uk 1.3 MBMICHAELDOUGLAS72776661132241 GB scGJnVfYf 
7/3/22 9:31:22 pm 407.11 Mbps 50.89 MB/sCox 110.5 MB35362266879971 US R0-CQgR9X 
7/3/22 9:31:19 pm 13.47 Mbps 1.68 MB/sCox 9 MBHotlamp86805512103171 US mnypvbcSX 
7/3/22 9:31:19 pm 367.56 Mbps 45.94 MB/sCox 110.5 MB35362266879971 US Mtb2dWWbY 
7/3/22 9:31:19 pm 22.56 Mbps 2.82 MB/sVodafone Uk 23.4 MBMICHAELDOUGLAS72776661132241 GB 9J7JwmK~L 
7/3/22 9:31:13 pm 214.53 Mbps 26.82 MB/sCox 110.5 MB35362266879971 US RQrvb-k9h 
7/3/22 9:31:10 pm 105.04 Mbps 13.13 MB/sComcast 76.9 MB68286987417931 US shmiEoyWa 
7/3/22 9:31:07 pm 434.18 Mbps 54.27 MB/sCox 110.5 MB35362266879971 US 7-XQAkOGA 
7/3/22 9:31:03 pm 367.41 Mbps 45.93 MB/sCox 110.5 MB35362266879971 US Omt6ZyuC2 
7/3/22 9:31:02 pm 1.26 Mbps 0.16 MB/sO2 2.5 MB9765007582186 DE EfYnUJ1TX 
7/3/22 9:31:00 pm 347.45 Mbps 43.43 MB/sCox 110.5 MB35362266879971 US oAwP_VMoD 
7/3/22 9:30:56 pm 0.45 Mbps 0.06 MB/sEnvia Tel 256 kBAlfred63341579507522 ES 2ywf~koq7 
7/3/22 9:30:56 pm 474.16 Mbps 59.27 MB/sCox 110.5 MB35362266879971 US _lR_Wt4kt 
7/3/22 9:30:55 pm 15.44 Mbps 1.93 MB/sAsiacell 14.7 MB7538020659514 IQ ZLTsOCqN8 
7/3/22 9:30:50 pm 98.35 Mbps 12.29 MB/sHrvatski 67.6 MB854119896911 HR IY-fTxEmd 
7/3/22 9:30:50 pm 383.84 Mbps 47.98 MB/sCox 110.5 MB35362266879971 US 2-mooL672 
7/3/22 9:30:49 pm 12.43 Mbps 1.55 MB/sCox 9 MBHotlamp86805512103171 US ZwwyvXqre 
7/3/22 9:30:47 pm 0.22 Mbps 0.03 MB/sEnvia Tel 96 kBAlfred63341579507522 ES eeMdwQKIA 
7/3/22 9:30:47 pm 0.74 Mbps 0.09 MB/sCosmote 384 kB10012110804505 GR yehM5j6jW 
7/3/22 9:30:42 pm 12.17 Mbps 1.52 MB/sCox 9 MBHotlamp86805512103171 US Jt1cmrd~E 
7/3/22 9:30:34 pm 13.1 Mbps 1.64 MB/sCox 9 MBHotlamp86805512103171 US qA3uf~Nlz 
7/3/22 9:30:33 pm 14.42 Mbps 1.8 MB/sMidco 23.3 MB15918309428058 US ayRhnpeu0 
7/3/22 9:30:33 pm 0.3 Mbps 0.04 MB/sHughes 256 kB54309526506637 PE RkktCJt5s 
7/3/22 9:30:25 pm 28.35 Mbps 3.54 MB/sBell Canada 7.5 MB70329779331 CA naxXsBNnY 
7/3/22 9:30:24 pm 7.2 Mbps 0.9 MB/sVerizon 2.3 MB45314629589234 US bP8iZFaIp 
7/3/22 9:30:21 pm 0.14 Mbps 0.02 MB/sSomcable Ltd 256 kBhola-amigo38325050877 SO 8Ot2GJaRY 
7/3/22 9:30:18 pm 99.81 Mbps 12.48 MB/sMidco 115 MB15918309428058 US sX2mUaYgO 
7/3/22 9:30:17 pm 0.07 Mbps 0.01 MB/sHughes 96 kB54309526506637 PE nYVahoKSR 
  
Graphed results calculation